Time;durP1;ratioP1;P1;durP2;ratioP2;P2;SDS_P1;SDS_P2;PMS_P1;PMS_P2;Temp;Humidity;BMP_temperature;BMP_pressure;BME280_temperature;BME280_humidity;BME280_pressure;Samples;Min_cycle;Max_cycle;Signal;HPM_P1;HPM_P2
2021/04/26 00:00:20;;;;;;;11.65;3.35;;;6.90;99.90;;;;;;5087578;28;20056;-76
2021/04/26 00:02:48;;;;;;;9.27;2.30;;;6.60;99.90;;;;;;5086736;28;20052;-76
2021/04/26 00:05:15;;;;;;;12.27;3.78;;;8.10;99.90;;;;;;5087021;28;20048;-76
2021/04/26 00:07:42;;;;;;;6.82;2.75;;;6.50;99.90;;;;;;5079455;28;20052;-75
2021/04/26 00:10:11;;;;;;;7.43;3.70;;;6.60;99.90;;;;;;5082784;28;20048;-76
2021/04/26 00:12:39;;;;;;;10.05;3.42;;;6.60;99.90;;;;;;5085686;28;20670;-76
2021/04/26 00:15:24;;;;;;;5.40;2.75;;;8.30;99.90;;;;;;5086894;28;20047;-76
2021/04/26 00:17:52;;;;;;;6.97;3.40;;;6.70;99.90;;;;;;5073848;28;20057;-78
2021/04/26 00:20:22;;;;;;;7.65;3.50;;;7.30;99.90;;;;;;5055974;28;20502;-76
2021/04/26 00:22:50;;;;;;;10.73;3.03;;;6.60;99.90;;;;;;5047203;28;20044;-81
2021/04/26 00:25:17;;;;;;;6.72;2.45;;;7.00;99.90;;;;;;5069034;28;20056;-76
2021/04/26 00:27:44;;;;;;;5.75;3.40;;;6.50;99.90;;;;;;5073937;28;20130;-76
2021/04/26 00:30:14;;;;;;;9.35;2.92;;;6.60;99.90;;;;;;5040065;28;20049;-76
2021/04/26 00:32:41;;;;;;;3.92;2.80;;;6.60;99.90;;;;;;5065633;28;20052;-76
2021/04/26 00:35:11;;;;;;;8.27;2.90;;;6.60;99.90;;;;;;5073102;28;20507;-76
2021/04/26 00:37:38;;;;;;;4.88;2.83;;;6.60;99.90;;;;;;5073572;28;20048;-76
2021/04/26 00:40:06;;;;;;;8.40;3.20;;;7.40;99.90;;;;;;5055814;28;20488;-78
2021/04/26 00:42:34;;;;;;;6.38;2.42;;;6.70;99.90;;;;;;5067920;28;20048;-84
2021/04/26 00:45:07;;;;;;;5.65;2.35;;;7.90;99.90;;;;;;5074327;28;20056;-82
2021/04/26 00:47:39;;;;;;;6.93;3.45;;;6.70;99.90;;;;;;5075454;28;20059;-76
2021/04/26 00:50:07;;;;;;;;;;;7.60;99.90;;;;;;5059275;28;20048;-78
2021/04/26 00:52:34;;;;;;;9.80;2.72;;;6.70;99.90;;;;;;5074904;28;19924;-76
2021/04/26 00:55:04;;;;;;;7.05;2.97;;;6.90;99.90;;;;;;5075224;28;20059;-79
2021/04/26 00:57:32;;;;;;;6.10;4.22;;;6.70;99.90;;;;;;5057142;28;20052;-75
2021/04/26 00:59:59;;;;;;;19.42;3.60;;;7.80;99.90;;;;;;5053659;28;20052;-77
2021/04/26 01:02:26;;;;;;;5.13;2.80;;;6.70;99.90;;;;;;5076867;28;20048;-80
2021/04/26 01:04:56;;;;;;;3.92;2.88;;;6.70;99.90;;;;;;5053393;28;20056;-79
2021/04/26 01:07:24;;;;;;;7.03;2.95;;;6.70;99.90;;;;;;5039677;28;20044;-85
2021/04/26 01:09:51;;;;;;;10.65;3.45;;;6.90;99.90;;;;;;5055590;28;20092;-76
2021/04/26 01:12:22;;;;;;;6.03;3.00;;;6.70;99.90;;;;;;5037115;28;20048;-76
2021/04/26 01:15:09;;;;;;;9.05;4.30;;;6.70;99.90;;;;;;5050214;28;20106;-76
2021/04/26 01:17:44;;;;;;;8.85;3.00;;;6.70;99.90;;;;;;5037762;28;20057;-76
2021/04/26 01:20:27;;;;;;;7.28;3.22;;;6.70;99.90;;;;;;5048745;28;20489;-75
2021/04/26 01:23:19;;;;;;;6.10;3.35;;;6.70;99.90;;;;;;5047542;28;20041;-76
2021/04/26 01:25:50;;;;;;;9.18;3.10;;;6.70;99.90;;;;;;5047577;28;20049;-76
2021/04/26 01:28:27;;;;;;;7.65;2.85;;;6.70;99.90;;;;;;5046680;28;20052;-76
2021/04/26 01:30:55;;;;;;;9.40;3.58;;;8.10;99.90;;;;;;5047771;28;20048;-76
2021/04/26 01:33:39;;;;;;;8.27;3.22;;;6.70;99.90;;;;;;5045099;28;20045;-77
2021/04/26 01:36:11;;;;;;;9.57;3.20;;;6.80;99.90;;;;;;5034202;28;20056;-76
2021/04/26 01:38:50;;;;;;;6.88;3.47;;;6.70;99.90;;;;;;5049393;28;20057;-76
2021/04/26 01:41:20;;;;;;;15.57;4.60;;;6.70;99.90;;;;;;5050229;28;20045;-77
2021/04/26 01:43:48;;;;;;;13.00;3.30;;;9.50;99.90;;;;;;5051563;28;20041;-76
2021/04/26 01:46:18;;;;;;;8.73;3.72;;;7.00;99.90;;;;;;4699762;28;10000623;-76
2021/04/26 01:48:48;;;;;;;5.68;3.67;;;6.60;99.90;;;;;;5047722;28;20056;-76
2021/04/26 01:51:17;;;;;;;7.75;2.80;;;6.60;99.90;;;;;;5051520;28;20057;-75
2021/04/26 01:53:47;;;;;;;14.15;4.22;;;7.20;99.90;;;;;;5028683;28;20053;-76
2021/04/26 01:56:17;;;;;;;7.75;5.18;;;8.20;99.90;;;;;;5050621;28;20053;-76
2021/04/26 01:58:56;;;;;;;10.85;3.78;;;6.30;99.90;;;;;;5029579;28;20050;-78
2021/04/26 02:01:28;;;;;;;13.23;3.50;;;6.20;99.90;;;;;;5054785;28;20595;-77
2021/04/26 02:04:01;;;;;;;16.98;3.53;;;5.50;99.90;;;;;;5051936;28;20056;-78
2021/04/26 02:06:56;;;;;;;10.00;3.13;;;6.10;99.90;;;;;;5076314;28;20060;-77
2021/04/26 02:09:38;;;;;;;12.90;3.97;;;6.10;99.90;;;;;;5082262;28;20410;-76
2021/04/26 02:12:12;;;;;;;6.20;3.20;;;6.00;99.90;;;;;;5064043;28;20044;-77
2021/04/26 02:14:44;;;;;;;4.78;3.40;;;7.70;99.90;;;;;;5066476;28;20053;-78
2021/04/26 02:17:15;;;;;;;10.98;4.28;;;7.50;99.90;;;;;;5064654;28;20053;-76
2021/04/26 02:19:43;;;;;;;9.15;2.53;;;5.90;99.90;;;;;;5068668;28;20057;-91
2021/04/26 02:22:11;;;;;;;17.45;2.97;;;;;;;;;;5069565;28;20294;-87
2021/04/26 02:24:53;;;;;;;15.45;4.57;;;5.80;99.90;;;;;;5070679;28;20055;-80
2021/04/26 02:27:22;;;;;;;7.47;4.05;;;;;;;;;;5087582;28;20052;-88
2021/04/26 02:29:51;;;;;;;3.38;2.78;;;5.70;99.90;;;;;;5070861;28;20036;-81
2021/04/26 02:32:25;;;;;;;10.02;3.30;;;6.10;99.90;;;;;;5069978;28;20059;-76
2021/04/26 02:35:17;;;;;;;8.50;3.83;;;5.00;99.90;;;;;;5082270;28;20058;-77
2021/04/26 02:37:53;;;;;;;10.40;3.30;;;5.70;99.90;;;;;;5067517;28;20473;-87
2021/04/26 02:40:24;;;;;;;5.93;3.17;;;7.10;99.90;;;;;;5068742;28;20040;-78
2021/04/26 02:42:56;;;;;;;5.82;4.95;;;6.20;99.90;;;;;;5065674;28;20052;-77
2021/04/26 02:45:28;;;;;;;7.95;3.85;;;7.60;99.90;;;;;;5057885;28;20056;-83
2021/04/26 02:47:56;;;;;;;6.43;2.90;;;5.50;99.90;;;;;;5077707;28;20048;-79
2021/04/26 02:50:29;;;;;;;7.82;3.10;;;6.80;99.90;;;;;;5064788;28;20048;-79
2021/04/26 02:53:16;;;;;;;5.50;3.50;;;5.50;99.90;;;;;;5052029;28;20053;-82
2021/04/26 02:55:45;;;;;;;16.48;7.10;;;5.10;99.90;;;;;;5083848;28;20157;-78
2021/04/26 02:58:14;;;;;;;6.35;3.55;;;5.50;99.90;;;;;;5062528;28;20044;-85
2021/04/26 03:00:42;;;;;;;5.93;3.15;;;5.50;99.90;;;;;;5072132;28;20064;-81
2021/04/26 03:03:39;;;;;;;11.13;3.45;;;6.50;99.90;;;;;;5059335;28;20054;-85
2021/04/26 03:06:13;;;;;;;21.50;3.75;;;6.30;99.90;;;;;;5064745;28;20053;-87
2021/04/26 03:09:00;;;;;;;5.47;3.25;;;5.50;99.90;;;;;;5075770;28;20032;-79
2021/04/26 03:11:29;;;;;;;14.82;4.32;;;6.10;99.90;;;;;;5065120;28;20059;-84
2021/04/26 03:13:57;;;;;;;12.43;4.38;;;4.80;99.90;;;;;;5050509;28;20045;-82
2021/04/26 03:16:27;;;;;;;6.00;4.20;;;5.50;99.90;;;;;;5065008;28;20075;-80
2021/04/26 03:18:55;;;;;;;12.98;6.63;;;5.50;99.90;;;;;;5047573;28;20055;-76
2021/04/26 03:21:23;;;;;;;12.98;4.25;;;5.60;99.90;;;;;;5065218;28;20058;-88
2021/04/26 03:23:55;;;;;;;12.52;6.32;;;5.60;99.90;;;;;;5063542;28;20041;-89
2021/04/26 03:26:24;;;;;;;4.95;3.15;;;5.60;99.90;;;;;;5053390;28;20400;-79
2021/04/26 03:28:52;;;;;;;8.52;2.97;;;5.20;99.90;;;;;;5078933;28;20067;-88
2021/04/26 03:31:20;;;;;;;8.95;3.05;;;5.70;99.90;;;;;;5062482;28;20080;-85
2021/04/26 03:33:58;;;;;;;6.88;3.15;;;5.70;99.90;;;;;;5080411;28;20068;-81
2021/04/26 03:36:26;;;;;;;11.07;3.33;;;4.90;99.90;;;;;;5083296;28;20062;-81
2021/04/26 03:38:55;;;;;;;11.45;3.35;;;5.40;99.90;;;;;;5063910;28;20048;-89
2021/04/26 03:41:24;;;;;;;8.93;3.92;;;5.20;99.90;;;;;;5063981;28;20408;-81
2021/04/26 03:43:55;;;;;;;7.00;3.00;;;5.50;99.90;;;;;;5053621;28;20056;-90
2021/04/26 03:46:28;;;;;;;10.32;4.18;;;5.60;99.90;;;;;;5064953;28;20041;-79
2021/04/26 03:49:14;;;;;;;4.65;3.13;;;6.00;99.90;;;;;;5082429;28;20055;-83
2021/04/26 03:52:00;;;;;;;5.63;3.67;;;5.80;99.90;;;;;;5083490;28;20055;-87
2021/04/26 03:54:46;;;;;;;9.02;3.10;;;5.80;99.90;;;;;;5075278;28;20048;-82
2021/04/26 03:57:13;;;;;;;12.27;3.60;;;5.80;99.90;;;;;;5065461;28;20492;-80
2021/04/26 03:59:41;;;;;;;7.22;3.28;;;6.00;99.90;;;;;;5074894;28;20051;-79
2021/04/26 04:02:09;;;;;;;6.43;2.95;;;7.40;99.90;;;;;;5072107;28;20049;-76
2021/04/26 04:04:42;;;;;;;5.50;3.08;;;7.90;99.90;;;;;;5079571;28;20052;-79
2021/04/26 04:07:33;;;;;;;9.95;4.68;;;5.10;99.90;;;;;;5078837;28;20052;-76
2021/04/26 04:10:20;;;;;;;7.07;4.32;;;5.90;99.90;;;;;;5063646;28;20059;-75
2021/04/26 04:13:06;;;;;;;5.88;3.63;;;6.00;99.90;;;;;;5072860;28;20049;-79
2021/04/26 04:15:33;;;;;;;6.53;2.72;;;6.60;99.90;;;;;;5040353;28;20041;-76
2021/04/26 04:18:01;;;;;;;8.88;3.25;;;6.00;99.90;;;;;;5054616;28;20060;-76
2021/04/26 04:20:35;;;;;;;5.60;2.40;;;5.90;99.90;;;;;;5054637;28;20044;-76
2021/04/26 04:23:02;;;;;;;10.10;3.38;;;6.30;99.90;;;;;;5071981;28;20388;-76
2021/04/26 04:25:29;;;;;;;6.20;3.50;;;6.10;99.90;;;;;;5041012;28;20048;-76
2021/04/26 04:27:59;;;;;;;11.95;3.33;;;6.10;99.90;;;;;;5045559;28;20648;-78
2021/04/26 04:30:27;;;;;;;7.60;3.10;;;7.10;99.90;;;;;;5033669;28;20056;-75
2021/04/26 04:33:15;;;;;;;10.50;3.30;;;6.00;99.90;;;;;;5063514;28;20502;-75
2021/04/26 04:36:16;;;;;;;9.60;3.83;;;6.20;99.90;;;;;;5042262;28;20048;-76
2021/04/26 04:39:02;;;;;;;9.45;3.22;;;6.00;99.90;;;;;;5070751;28;20717;-75
2021/04/26 04:41:48;;;;;;;7.85;3.08;;;6.10;99.90;;;;;;5072701;28;20456;-76
2021/04/26 04:44:16;;;;;;;2.90;2.58;;;5.40;99.90;;;;;;5054421;28;20045;-76
2021/04/26 04:46:43;;;;;;;8.50;2.95;;;6.10;99.90;;;;;;5072066;28;20044;-77
2021/04/26 04:49:13;;;;;;;8.20;3.38;;;7.50;99.90;;;;;;5036521;28;20048;-76
2021/04/26 04:51:43;;;;;;;5.18;2.85;;;6.90;99.90;;;;;;5036480;28;20061;-76
2021/04/26 04:54:13;;;;;;;6.75;3.03;;;6.10;99.90;;;;;;5052635;28;20049;-76
2021/04/26 04:57:01;;;;;;;7.10;4.32;;;6.00;99.90;;;;;;5042761;28;20415;-76
2021/04/26 04:59:32;;;;;;;7.68;3.33;;;6.20;99.90;;;;;;5032355;28;20063;-77
2021/04/26 05:02:13;;;;;;;7.90;4.28;;;6.10;99.90;;;;;;5048556;28;20044;-78
2021/04/26 05:04:59;;;;;;;10.40;3.97;;;6.70;99.90;;;;;;5071533;28;20053;-76
2021/04/26 05:07:45;;;;;;;9.52;3.72;;;6.10;99.90;;;;;;5066609;28;20114;-75
2021/04/26 05:10:31;;;;;;;11.25;3.67;;;6.10;99.90;;;;;;5069436;28;20055;-75
2021/04/26 05:13:18;;;;;;;9.35;3.28;;;6.10;99.90;;;;;;5068508;28;20052;-76
2021/04/26 05:15:55;;;;;;;9.95;3.95;;;6.20;99.90;;;;;;5037342;28;20067;-75
2021/04/26 05:18:22;;;;;;;11.77;4.10;;;6.20;99.90;;;;;;5070207;28;20049;-75
2021/04/26 05:20:50;;;;;;;7.88;3.88;;;5.60;99.90;;;;;;5071476;28;20048;-75
2021/04/26 05:23:19;;;;;;;10.02;3.67;;;6.70;99.90;;;;;;5052736;28;20079;-76
2021/04/26 05:25:50;;;;;;;7.07;3.17;;;6.20;99.90;;;;;;5052325;28;20044;-77
2021/04/26 05:28:21;;;;;;;5.97;3.03;;;5.40;99.90;;;;;;5052555;28;20063;-76
2021/04/26 05:30:54;;;;;;;12.00;4.63;;;6.30;99.90;;;;;;5052364;28;20044;-77
2021/04/26 05:33:22;;;;;;;16.80;5.03;;;;;;;;;;5052368;28;20044;-76
2021/04/26 05:35:55;;;;;;;6.40;2.97;;;6.30;99.90;;;;;;5069895;28;20056;-80
2021/04/26 05:38:27;;;;;;;6.38;3.17;;;6.10;99.90;;;;;;5052137;28;20049;-75
2021/04/26 05:40:55;;;;;;;8.25;3.47;;;6.30;99.90;;;;;;5051661;28;20116;-76
2021/04/26 05:43:22;;;;;;;7.68;3.55;;;6.40;99.90;;;;;;5041959;28;20048;-77
2021/04/26 05:45:53;;;;;;;7.40;3.17;;;6.40;99.90;;;;;;5035507;28;20522;-76
2021/04/26 05:48:23;;;;;;;9.70;2.85;;;5.70;99.90;;;;;;5068157;28;20059;-76
2021/04/26 05:50:53;;;;;;;16.95;4.50;;;6.40;99.90;;;;;;5028638;28;20041;-80
2021/04/26 05:53:21;;;;;;;11.82;3.95;;;6.50;99.90;;;;;;5050337;28;20040;-75
2021/04/26 05:55:49;;;;;;;7.07;3.75;;;6.70;99.90;;;;;;5069722;28;20048;-76
2021/04/26 05:58:16;;;;;;;10.15;4.45;;;6.50;99.90;;;;;;5048290;28;20053;-76
2021/04/26 06:00:44;;;;;;;6.80;3.30;;;6.50;99.90;;;;;;5064447;28;20052;-79
2021/04/26 06:03:11;;;;;;;4.90;2.90;;;6.50;99.90;;;;;;5066395;28;20471;-76
2021/04/26 06:05:38;;;;;;;6.45;2.35;;;6.50;99.90;;;;;;5051322;28;20052;-76
2021/04/26 06:08:10;;;;;;;7.43;2.65;;;6.60;99.90;;;;;;5071327;28;20446;-77
2021/04/26 06:10:37;;;;;;;6.07;3.47;;;7.00;99.90;;;;;;5068015;28;20040;-75
2021/04/26 06:13:07;;;;;;;6.00;3.72;;;6.60;99.90;;;;;;5060304;28;20048;-76
2021/04/26 06:15:34;;;;;;;23.30;9.80;;;6.70;99.90;;;;;;5033506;28;20048;-76
2021/04/26 06:18:20;;;;;;;6.70;3.30;;;7.10;99.90;;;;;;5042906;28;20053;-81
2021/04/26 06:20:51;;;;;;;5.25;3.05;;;6.70;99.90;;;;;;5074165;28;20052;-76
2021/04/26 06:23:19;;;;;;;10.23;3.47;;;6.60;99.90;;;;;;5056306;28;20057;-86
2021/04/26 06:25:47;;;;;;;6.22;3.22;;;8.50;99.90;;;;;;5048887;28;20044;-76
2021/04/26 06:28:16;;;;;;;10.30;5.13;;;6.80;99.90;;;;;;5074760;28;20044;-77
2021/04/26 06:30:45;;;;;;;11.05;3.22;;;6.80;99.90;;;;;;5050837;28;20434;-77
2021/04/26 06:33:16;;;;;;;14.98;4.25;;;6.80;99.90;;;;;;5018443;28;20063;-76
2021/04/26 06:35:46;;;;;;;6.10;3.03;;;7.80;99.90;;;;;;5032179;28;20048;-79
2021/04/26 06:38:14;;;;;;;7.93;3.00;;;6.70;99.90;;;;;;5074121;28;20514;-80
2021/04/26 06:40:41;;;;;;;6.50;3.83;;;8.20;99.90;;;;;;5045517;28;20055;-76
2021/04/26 06:43:10;;;;;;;11.43;3.70;;;6.90;99.90;;;;;;5045252;28;20036;-76
2021/04/26 06:45:41;;;;;;;12.75;3.40;;;6.90;99.90;;;;;;5070789;28;20402;-77
2021/04/26 06:48:09;;;;;;;9.13;3.17;;;8.60;99.90;;;;;;5052951;28;20053;-79
2021/04/26 06:50:36;;;;;;;7.65;3.20;;;;;;;;;;5074625;28;20078;-80
2021/04/26 06:53:04;;;;;;;5.85;3.97;;;7.00;99.90;;;;;;5048949;28;20055;-76
2021/04/26 06:55:33;;;;;;;8.32;4.22;;;7.10;99.90;;;;;;5072221;28;20044;-77
2021/04/26 06:58:00;;;;;;;9.15;3.45;;;7.00;99.90;;;;;;5044982;28;20432;-77
2021/04/26 07:00:28;;;;;;;8.52;3.08;;;8.40;99.90;;;;;;5072907;28;20063;-77
2021/04/26 07:02:56;;;;;;;15.40;4.90;;;;;;;;;;5057417;28;20057;-77
2021/04/26 07:05:24;;;;;;;8.98;4.45;;;7.20;99.90;;;;;;5043019;28;20053;-76
2021/04/26 07:07:51;;;;;;;8.02;3.38;;;8.60;99.90;;;;;;5055958;28;20511;-81
2021/04/26 07:10:18;;;;;;;11.75;3.25;;;7.30;99.90;;;;;;5053591;28;20045;-84
2021/04/26 07:12:46;;;;;;;9.02;2.75;;;7.30;99.90;;;;;;5061388;28;20541;-79
2021/04/26 07:15:16;;;;;;;11.02;3.65;;;7.40;99.90;;;;;;5058179;28;20408;-80
2021/04/26 07:17:44;;;;;;;6.03;3.55;;;7.30;99.90;;;;;;5059793;28;20063;-82
2021/04/26 07:20:13;;;;;;;6.70;3.03;;;7.30;99.90;;;;;;5061420;28;20135;-82
2021/04/26 07:22:42;;;;;;;6.45;3.17;;;7.30;99.90;;;;;;5071534;28;20041;-81
2021/04/26 07:25:10;;;;;;;5.63;2.25;;;7.30;99.90;;;;;;5048088;28;20369;-81
2021/04/26 07:27:38;;;;;;;13.32;3.22;;;7.30;99.90;;;;;;5049410;28;20052;-80
2021/04/26 07:30:08;;;;;;;7.32;5.13;;;7.40;99.90;;;;;;5061690;28;20064;-83
2021/04/26 07:32:36;;;;;;;7.20;3.42;;;7.40;99.90;;;;;;5058024;28;20056;-80
2021/04/26 07:35:05;;;;;;;7.10;3.50;;;7.60;99.90;;;;;;5057711;28;20037;-84
2021/04/26 07:37:38;;;;;;;13.60;5.95;;;7.50;99.90;;;;;;5052014;28;20057;-81
2021/04/26 07:40:07;;;;;;;16.42;3.65;;;7.60;99.90;;;;;;5051101;28;20052;-79
2021/04/26 07:42:34;;;;;;;17.48;3.80;;;7.60;99.90;;;;;;5050615;28;20052;-81
2021/04/26 07:45:03;;;;;;;7.60;3.20;;;8.20;99.90;;;;;;5050925;28;20522;-81
2021/04/26 07:47:33;;;;;;;10.52;4.68;;;;;;;;;;5051597;28;20060;-80
2021/04/26 07:50:01;;;;;;;13.43;3.92;;;;;;;;;;5050657;28;20052;-80
2021/04/26 07:52:34;;;;;;;11.95;3.20;;;;;;;;;;5047445;28;20058;-81
2021/04/26 07:55:03;;;;;;;9.48;3.53;;;8.20;99.90;;;;;;5050041;28;20057;-82
2021/04/26 07:57:32;;;;;;;15.45;3.22;;;8.00;99.90;;;;;;5033962;28;20044;-80
2021/04/26 08:00:30;;;;;;;5.50;3.58;;;8.10;99.90;;;;;;4993185;28;20052;-81
2021/04/26 08:03:20;;;;;;;9.95;3.85;;;8.00;99.90;;;;;;4660827;28;10000278;-82
2021/04/26 08:06:08;;;;;;;13.20;4.72;;;8.10;99.90;;;;;;5026321;28;20052;-80
2021/04/26 08:08:56;;;;;;;8.10;3.05;;;9.20;99.90;;;;;;5000099;28;20477;-81
2021/04/26 08:11:44;;;;;;;9.15;2.88;;;8.00;99.90;;;;;;5025842;28;20056;-81
2021/04/26 08:14:33;;;;;;;11.27;3.05;;;8.00;99.90;;;;;;5007157;28;20060;-81
2021/04/26 08:17:20;;;;;;;7.28;2.88;;;8.00;99.90;;;;;;5010138;28;20049;-81
2021/04/26 08:20:09;;;;;;;8.70;3.70;;;8.00;99.90;;;;;;4970502;28;20049;-82
2021/04/26 08:22:57;;;;;;;21.13;3.28;;;8.00;99.90;;;;;;5013109;28;20057;-85
2021/04/26 08:25:50;;;;;;;6.20;3.55;;;8.10;99.90;;;;;;5026358;28;20049;-81
2021/04/26 08:28:44;;;;;;;4.78;3.28;;;8.10;99.90;;;;;;5017799;28;20037;-83
2021/04/26 08:31:32;;;;;;;9.23;3.50;;;8.10;99.90;;;;;;4994386;28;20045;-82
2021/04/26 08:34:19;;;;;;;5.28;3.60;;;8.10;99.90;;;;;;5028736;28;20080;-83
2021/04/26 08:37:07;;;;;;;8.65;3.25;;;8.20;99.90;;;;;;4998803;28;20555;-84
2021/04/26 08:39:54;;;;;;;6.10;2.85;;;8.20;99.90;;;;;;4993175;28;20051;-84
2021/04/26 08:42:42;;;;;;;13.77;3.10;;;8.30;99.90;;;;;;5017573;28;20456;-84
2021/04/26 08:45:30;;;;;;;7.47;2.70;;;8.90;99.90;;;;;;4992642;28;20049;-83
2021/04/26 08:48:18;;;;;;;12.82;3.25;;;8.50;99.90;;;;;;5022619;28;20056;-83
2021/04/26 08:51:08;;;;;;;15.30;2.35;;;8.50;99.90;;;;;;5008047;28;20061;-84
2021/04/26 08:53:55;;;;;;;9.35;3.50;;;8.60;99.90;;;;;;4998656;28;20041;-83
2021/04/26 08:56:46;;;;;;;10.25;2.72;;;8.60;99.90;;;;;;5007442;28;20041;-83
2021/04/26 08:59:36;;;;;;;13.85;3.83;;;8.70;99.90;;;;;;5005167;28;20169;-84
2021/04/26 09:02:24;;;;;;;7.53;2.75;;;8.80;99.90;;;;;;5020097;28;20045;-83
2021/04/26 09:04:55;;;;;;;7.07;2.22;;;8.80;99.90;;;;;;5062717;28;20370;-84
2021/04/26 09:07:23;;;;;;;4.53;2.25;;;9.00;99.90;;;;;;5072702;28;20045;-86
2021/04/26 09:09:53;;;;;;;6.47;2.78;;;9.60;99.90;;;;;;5055248;28;20040;-84
2021/04/26 09:12:29;;;;;;;5.63;3.25;;;9.00;99.90;;;;;;5068392;28;20052;-83
2021/04/26 09:15:03;;;;;;;8.85;2.75;;;9.10;99.90;;;;;;5069801;28;20060;-84
2021/04/26 09:17:34;;;;;;;6.28;2.60;;;9.10;99.70;;;;;;5065144;28;20049;-82
2021/04/26 09:20:14;;;;;;;10.50;2.90;;;9.20;99.50;;;;;;5074307;28;20688;-83
2021/04/26 09:22:47;;;;;;;3.97;2.72;;;9.20;99.50;;;;;;5073922;28;20048;-83
2021/04/26 09:25:23;;;;;;;9.73;2.65;;;9.30;99.30;;;;;;5071773;28;20056;-83
2021/04/26 09:28:17;;;;;;;6.57;2.53;;;9.30;99.00;;;;;;5049053;28;20053;-84
2021/04/26 09:30:56;;;;;;;5.75;2.47;;;9.30;98.80;;;;;;5073657;28;20056;-83
2021/04/26 09:33:34;;;;;;;6.32;3.08;;;9.30;99.10;;;;;;5037629;28;20052;-83
2021/04/26 09:36:21;;;;;;;12.50;3.25;;;9.40;99.00;;;;;;5073478;28;20056;-84
2021/04/26 09:38:53;;;;;;;10.30;3.78;;;9.40;99.20;;;;;;5052754;28;20055;-83
2021/04/26 09:41:25;;;;;;;7.50;2.60;;;9.60;99.20;;;;;;5071724;28;20593;-84
2021/04/26 09:44:13;;;;;;;7.93;2.95;;;9.70;98.90;;;;;;5070578;28;20052;-84
2021/04/26 09:46:42;;;;;;;7.97;3.28;;;9.70;98.20;;;;;;5068348;28;20041;-83
2021/04/26 09:49:15;;;;;;;7.10;3.20;;;9.80;98.30;;;;;;5052064;28;20056;-83
2021/04/26 09:51:55;;;;;;;8.60;2.15;;;9.70;98.10;;;;;;5069082;28;20044;-83
2021/04/26 09:54:41;;;;;;;6.95;2.50;;;9.80;98.30;;;;;;5065192;28;20056;-83
2021/04/26 09:57:10;;;;;;;8.15;2.38;;;9.80;97.90;;;;;;5061181;28;20064;-83
2021/04/26 09:59:39;;;;;;;6.35;2.53;;;9.90;97.90;;;;;;5073400;28;20060;-84
2021/04/26 10:02:08;;;;;;;3.25;2.50;;;9.80;97.80;;;;;;5055908;28;20059;-83
2021/04/26 10:04:37;;;;;;;6.68;2.20;;;10.20;98.00;;;;;;5044626;28;20605;-84
2021/04/26 10:07:05;;;;;;;6.75;2.53;;;9.90;98.00;;;;;;5070724;28;20491;-83
2021/04/26 10:09:33;;;;;;;7.13;2.55;;;10.00;97.90;;;;;;5054284;28;20063;-83
2021/04/26 10:12:01;;;;;;;6.57;2.17;;;10.10;97.90;;;;;;5052291;28;20053;-84
2021/04/26 10:14:29;;;;;;;6.53;2.90;;;10.20;97.40;;;;;;5052349;28;20056;-83
2021/04/26 10:17:04;;;;;;;6.20;2.50;;;10.10;97.10;;;;;;5066526;28;20052;-88
2021/04/26 10:19:37;;;;;;;4.78;2.83;;;10.10;97.20;;;;;;5074659;28;20054;-84
2021/04/26 10:22:06;;;;;;;6.03;2.17;;;10.10;97.50;;;;;;5068441;28;20045;-83
2021/04/26 10:24:34;;;;;;;11.82;2.75;;;10.10;97.40;;;;;;5047016;28;20044;-85
2021/04/26 10:27:10;;;;;;;3.60;2.50;;;10.90;97.10;;;;;;5072618;28;20778;-84
2021/04/26 10:29:39;;;;;;;7.25;2.58;;;10.00;96.90;;;;;;5052339;28;20052;-83
2021/04/26 10:32:12;;;;;;;11.07;2.60;;;10.10;97.00;;;;;;5052664;28;20045;-85
2021/04/26 10:34:43;;;;;;;3.70;2.28;;;10.20;97.00;;;;;;5068760;28;20067;-84
2021/04/26 10:37:15;;;;;;;21.90;3.65;;;10.20;96.30;;;;;;5073992;28;20048;-84
2021/04/26 10:39:57;;;;;;;8.02;3.03;;;10.40;96.50;;;;;;5060805;28;20048;-84
2021/04/26 10:42:34;;;;;;;9.00;2.47;;;10.60;96.50;;;;;;5061471;28;20059;-84
2021/04/26 10:45:04;;;;;;;11.60;2.78;;;10.80;96.10;;;;;;5060136;28;20063;-83
2021/04/26 10:48:04;;;;;;;7.60;2.47;;;10.90;95.70;;;;;;5079169;28;20056;-85
2021/04/26 10:50:42;;;;;;;4.53;2.10;;;11.00;95.80;;;;;;5058816;28;20048;-83
2021/04/26 10:53:11;;;;;;;13.40;3.85;;;11.30;95.40;;;;;;5054830;28;20056;-83
2021/04/26 10:56:01;;;;;;;6.28;3.28;;;11.30;95.40;;;;;;5047328;28;20040;-82
2021/04/26 10:58:31;;;;;;;6.72;2.80;;;11.40;94.80;;;;;;5076456;28;20089;-82
2021/04/26 11:00:58;;;;;;;4.97;2.55;;;11.50;94.10;;;;;;5058053;28;20058;-83
2021/04/26 11:03:29;;;;;;;13.98;2.70;;;11.40;93.90;;;;;;5056672;28;20040;-83
2021/04/26 11:06:07;;;;;;;7.50;3.63;;;11.40;94.00;;;;;;5069276;28;20036;-83
2021/04/26 11:08:50;;;;;;;11.82;2.65;;;11.50;93.50;;;;;;5067167;28;20205;-84
2021/04/26 11:11:29;;;;;;;6.63;2.72;;;11.40;93.60;;;;;;5060299;28;20488;-83
2021/04/26 11:14:02;;;;;;;10.82;2.65;;;11.50;93.50;;;;;;5070849;28;20400;-83
2021/04/26 11:16:55;;;;;;;3.88;1.90;;;11.50;93.50;;;;;;5047725;28;20048;-84
2021/04/26 11:19:23;;;;;;;8.10;2.58;;;11.70;93.50;;;;;;5032763;28;20371;-84
2021/04/26 11:21:52;;;;;;;7.15;2.00;;;11.80;93.20;;;;;;5070355;28;20045;-84
2021/04/26 11:24:28;;;;;;;3.95;2.17;;;11.90;93.00;;;;;;5069717;28;20059;-84
2021/04/26 11:27:13;;;;;;;6.85;2.20;;;12.00;92.60;;;;;;5063329;28;20048;-84
2021/04/26 11:29:48;;;;;;;5.85;2.55;;;12.00;92.30;;;;;;5052575;28;20044;-84
2021/04/26 11:32:16;;;;;;;6.50;2.40;;;12.10;92.40;;;;;;5050016;28;20064;-84
2021/04/26 11:34:46;;;;;;;8.32;2.50;;;12.00;92.20;;;;;;5063594;28;20056;-83
2021/04/26 11:37:21;;;;;;;5.32;2.53;;;12.10;91.80;;;;;;5052569;28;20079;-84
2021/04/26 11:39:51;;;;;;;6.22;2.00;;;12.20;92.20;;;;;;5050007;28;20060;-83
2021/04/26 11:42:36;;;;;;;6.15;2.20;;;12.20;92.00;;;;;;5051652;28;20048;-85
2021/04/26 11:45:09;;;;;;;8.25;2.60;;;12.20;91.70;;;;;;5071982;28;20053;-88
2021/04/26 11:47:37;;;;;;;9.90;2.08;;;12.20;91.40;;;;;;5049920;28;20064;-85
2021/04/26 11:50:08;;;;;;;5.07;2.20;;;12.10;91.20;;;;;;5049277;28;20037;-84
2021/04/26 11:52:38;;;;;;;12.07;2.60;;;12.00;91.20;;;;;;5060038;28;20401;-83
2021/04/26 11:55:09;;;;;;;10.10;3.33;;;12.10;91.20;;;;;;5048803;28;20354;-88
2021/04/26 11:57:42;;;;;;;7.37;1.87;;;12.20;91.10;;;;;;5066839;28;20044;-84
2021/04/26 12:00:15;;;;;;;10.77;2.30;;;12.50;90.80;;;;;;5041205;28;20103;-83
2021/04/26 12:02:49;;;;;;;9.52;2.97;;;12.40;90.30;;;;;;5037507;28;20047;-83
2021/04/26 12:05:29;;;;;;;7.75;3.20;;;12.50;88.80;;;;;;5048420;28;20075;-83
2021/04/26 12:07:57;;;;;;;4.45;1.88;;;12.60;88.70;;;;;;5064634;28;20052;-84
2021/04/26 12:10:39;;;;;;;8.50;2.30;;;12.70;88.50;;;;;;5068745;28;20392;-83
2021/04/26 12:13:08;;;;;;;17.80;3.00;;;12.80;88.80;;;;;;5072147;28;20060;-83
2021/04/26 12:15:38;;;;;;;8.50;2.20;;;12.90;87.80;;;;;;5070100;28;20436;-88
2021/04/26 12:18:08;;;;;;;8.65;2.60;;;13.00;88.20;;;;;;5068855;28;20056;-83
2021/04/26 12:20:37;;;;;;;3.47;2.28;;;13.10;87.20;;;;;;5054020;28;20610;-83
2021/04/26 12:23:14;;;;;;;9.57;2.78;;;13.10;84.70;;;;;;5069701;28;20056;-82
2021/04/26 12:25:44;;;;;;;8.05;2.47;;;13.10;84.60;;;;;;5053200;28;20056;-83
2021/04/26 12:28:17;;;;;;;6.07;2.00;;;13.10;84.70;;;;;;5038712;28;20044;-87
2021/04/26 12:30:48;;;;;;;7.00;2.83;;;13.10;83.00;;;;;;5071376;28;20047;-85
2021/04/26 12:33:24;;;;;;;16.95;3.50;;;13.10;82.80;;;;;;5065998;28;20048;-84
2021/04/26 12:35:53;;;;;;;8.73;2.60;;;13.10;83.20;;;;;;5064241;28;20037;-82
2021/04/26 12:38:25;;;;;;;4.28;2.15;;;13.10;82.70;;;;;;5076452;28;20056;-83
2021/04/26 12:40:53;;;;;;;10.13;2.10;;;13.20;82.00;;;;;;5054812;28;20045;-83
2021/04/26 12:43:20;;;;;;;7.38;2.35;;;13.20;82.50;;;;;;5073021;28;20053;-83
2021/04/26 12:45:48;;;;;;;4.32;2.30;;;13.30;82.50;;;;;;5071686;28;20048;-83
2021/04/26 12:48:18;;;;;;;4.45;2.13;;;13.30;82.50;;;;;;5069234;28;20047;-83
2021/04/26 12:50:52;;;;;;;3.80;1.85;;;13.50;82.60;;;;;;5072023;28;20044;-85
2021/04/26 12:53:20;;;;;;;17.35;3.55;;;13.70;82.30;;;;;;5046277;28;20392;-84
2021/04/26 12:56:07;;;;;;;10.00;2.13;;;13.90;78.50;;;;;;5070785;28;20051;-83
2021/04/26 12:58:40;;;;;;;4.35;1.58;;;13.90;77.70;;;;;;5068417;28;20040;-83
2021/04/26 13:01:13;;;;;;;7.68;2.58;;;14.00;78.40;;;;;;5071352;28;20408;-83
2021/04/26 13:03:42;;;;;;;2.75;1.80;;;14.10;78.10;;;;;;5072288;28;20049;-84
2021/04/26 13:06:18;;;;;;;6.20;2.92;;;14.20;78.00;;;;;;5052253;28;20056;-83
2021/04/26 13:08:49;;;;;;;6.78;2.40;;;14.40;77.70;;;;;;5065249;28;20499;-84
2021/04/26 13:11:38;;;;;;;13.70;2.40;;;14.60;77.30;;;;;;5049111;28;20047;-84
2021/04/26 13:14:11;;;;;;;6.40;2.20;;;14.70;74.60;;;;;;5049389;28;20052;-83
2021/04/26 13:16:42;;;;;;;6.63;2.33;;;14.80;75.60;;;;;;5036377;28;20141;-82
2021/04/26 13:19:11;;;;;;;5.25;2.08;;;14.90;74.30;;;;;;5061307;28;20056;-83
2021/04/26 13:21:43;;;;;;;6.90;2.03;;;15.00;72.50;;;;;;5069059;28;20036;-83
2021/04/26 13:24:25;;;;;;;10.93;2.03;;;15.00;72.60;;;;;;5038374;28;20055;-84
2021/04/26 13:26:59;;;;;;;13.55;2.50;;;15.10;72.20;;;;;;5054147;28;20065;-83